Hermanus, South Africa
Current Conditions -  °F | °C
As of 11:00 AM on Thursday 27 Nov 2014 (Local Time) from FACT Reporting Station
Broken Clouds Broken Clouds  
Wind Chill: 72°   Ceiling: 3000
Heat Index: 72°   Visibility: 6mi
Dew Point: 59°   Wind: 14mph
Humidity: 64%   Direction: 270°W
Pressure: 29.88"   Gusts: NA
Location:  34.41°S, 19.23°E
Report Text: FACT 270900Z 27012KT 240V320 9999 BKN030 22/15 Q1012 NOSIG
Loading
Personal Weather Stations






























Interactive Weather Map New forecast layout! Learn more

10-Day Weather Forecast

Advertisements
Track Severe Weather on mobile